createdAt,value
2023-02-11T00:00:14.747Z,2.41
2023-02-11T00:01:14.769Z,2.40
2023-02-11T00:02:14.805Z,2.40
2023-02-11T00:03:14.781Z,2.43
2023-02-11T00:04:14.725Z,2.38
2023-02-11T00:05:14.758Z,2.41
2023-02-11T00:06:14.748Z,2.43
2023-02-11T00:07:14.732Z,2.45
2023-02-11T00:08:14.701Z,2.40
2023-02-11T00:09:14.704Z,2.43
2023-02-11T00:10:14.700Z,2.37
2023-02-11T00:11:14.754Z,2.37
2023-02-11T00:12:14.659Z,2.43
2023-02-11T00:13:14.682Z,2.44
2023-02-11T00:14:14.680Z,2.43
2023-02-11T00:15:14.664Z,2.44
2023-02-11T00:16:14.711Z,2.51
2023-02-11T00:17:14.691Z,2.45
2023-02-11T00:18:14.660Z,2.48
2023-02-11T00:19:14.639Z,2.44
2023-02-11T00:20:14.648Z,2.44
2023-02-11T00:21:14.623Z,2.41
2023-02-11T00:22:14.606Z,2.48
2023-02-11T00:23:14.651Z,2.59
2023-02-11T00:24:14.590Z,2.58
2023-02-11T00:25:14.591Z,2.59
2023-02-11T00:26:14.593Z,2.58
2023-02-11T00:27:14.543Z,2.55
2023-02-11T00:28:14.618Z,2.63
2023-02-11T00:29:14.609Z,2.53
2023-02-11T00:30:14.583Z,2.58
2023-02-11T00:31:14.661Z,2.61
2023-02-11T00:32:14.543Z,2.68
2023-02-11T00:33:14.528Z,2.56
2023-02-11T00:34:14.551Z,2.55
2023-02-11T00:35:14.601Z,2.59
2023-02-11T00:36:14.535Z,2.58
2023-02-11T00:37:14.499Z,2.62
2023-02-11T00:38:14.514Z,2.55
2023-02-11T00:39:14.498Z,2.56
2023-02-11T00:40:14.465Z,2.55
2023-02-11T00:41:14.534Z,2.59
2023-02-11T00:42:14.493Z,2.56
2023-02-11T00:43:14.464Z,2.61
2023-02-11T00:44:14.479Z,2.61
2023-02-11T00:45:14.429Z,2.61
2023-02-11T00:46:14.512Z,2.55
2023-02-11T00:47:14.847Z,2.63
2023-02-11T00:48:14.403Z,2.71
2023-02-11T00:49:14.401Z,2.62
2023-02-11T00:50:14.410Z,2.56
2023-02-11T00:51:14.387Z,2.53
2023-02-11T00:52:14.428Z,2.63
2023-02-11T00:53:14.429Z,2.56
2023-02-11T00:54:14.408Z,2.61
2023-02-11T00:55:14.397Z,2.55
2023-02-11T00:56:14.396Z,2.50
2023-02-11T00:57:14.371Z,2.50
2023-02-11T00:58:14.365Z,2.61
2023-02-11T00:59:14.396Z,2.51
2023-02-11T01:00:14.365Z,2.59
2023-02-11T01:01:14.393Z,2.62
2023-02-11T01:02:14.326Z,2.51
2023-02-11T01:03:14.331Z,2.53
2023-02-11T01:04:14.322Z,2.50
2023-02-11T01:05:14.401Z,2.58
2023-02-11T01:06:14.321Z,2.51
2023-02-11T01:07:14.285Z,2.62
2023-02-11T01:08:14.260Z,2.56
2023-02-11T01:09:14.325Z,2.66
2023-02-11T01:10:14.317Z,2.55
2023-02-11T01:11:14.379Z,2.59
2023-02-11T01:12:14.249Z,2.50
2023-02-11T01:13:14.251Z,2.56
2023-02-11T01:14:14.267Z,2.51
2023-02-11T01:15:26.151Z,2.55
2023-02-11T01:16:14.317Z,2.58
2023-02-11T01:17:14.268Z,2.50
2023-02-11T01:18:14.250Z,2.62
2023-02-11T01:19:14.234Z,2.51
2023-02-11T01:20:14.235Z,2.53
2023-02-11T01:21:14.207Z,2.47
2023-02-11T01:22:14.320Z,2.50
2023-02-11T01:23:14.299Z,2.44
2023-02-11T01:24:14.178Z,2.53
2023-02-11T01:25:14.188Z,2.43
2023-02-11T01:26:14.179Z,2.56
2023-02-11T01:27:14.190Z,2.51
2023-02-11T01:28:14.238Z,2.55
2023-02-11T01:29:37.844Z,2.48
2023-02-11T01:30:14.174Z,2.47
2023-02-11T01:31:14.254Z,2.56
2023-02-11T01:32:14.267Z,2.51
2023-02-11T01:33:14.192Z,2.51
2023-02-11T01:34:14.142Z,2.55
2023-02-11T01:35:14.152Z,2.50
2023-02-11T01:36:14.189Z,2.56
2023-02-11T01:37:14.108Z,2.68
2023-02-11T01:38:14.093Z,2.59
2023-02-11T01:39:14.093Z,2.56
2023-02-11T01:40:14.112Z,2.55
2023-02-11T01:41:14.150Z,2.58
2023-02-11T01:42:14.109Z,2.51
2023-02-11T01:43:14.079Z,2.58
2023-02-11T01:44:14.029Z,2.66
2023-02-11T01:45:14.094Z,2.74
2023-02-11T01:46:14.132Z,2.69
2023-02-11T01:47:14.070Z,2.65
2023-02-11T01:48:14.031Z,2.68
2023-02-11T01:49:14.044Z,2.66
2023-02-11T01:50:14.013Z,2.77
2023-02-11T01:51:14.003Z,2.73
2023-02-11T01:52:14.017Z,2.69
2023-02-11T01:53:14.309Z,2.66
2023-02-11T01:54:13.993Z,2.76
2023-02-11T01:55:13.970Z,2.77
2023-02-11T01:56:13.971Z,2.69
2023-02-11T01:57:13.958Z,2.69
2023-02-11T01:58:13.971Z,2.76
2023-02-11T01:59:13.989Z,2.77
2023-02-11T02:00:13.973Z,2.73
2023-02-11T02:01:13.968Z,2.83
2023-02-11T02:02:13.937Z,2.79
2023-02-11T02:03:13.953Z,2.77
2023-02-11T02:04:13.910Z,2.79
2023-02-11T02:05:13.938Z,2.81
2023-02-11T02:06:13.913Z,2.83
2023-02-11T02:07:13.891Z,2.84
2023-02-11T02:08:13.923Z,2.80
2023-02-11T02:09:13.872Z,2.84
2023-02-11T02:10:13.875Z,2.80
2023-02-11T02:11:13.912Z,2.83
2023-02-11T02:12:13.850Z,2.80
2023-02-11T02:13:13.846Z,2.74
2023-02-11T02:14:13.857Z,2.80
2023-02-11T02:15:13.846Z,2.76
2023-02-11T02:16:13.910Z,2.77
2023-02-11T02:17:13.874Z,2.69
2023-02-11T02:18:13.806Z,2.74
2023-02-11T02:19:13.816Z,2.61
2023-02-11T02:20:13.821Z,2.69
2023-02-11T02:21:13.765Z,2.65
2023-02-11T02:22:13.796Z,2.63
2023-02-11T02:23:13.866Z,2.66
2023-02-11T02:24:14.307Z,2.69
2023-02-11T02:25:13.766Z,2.63
2023-02-11T02:26:13.783Z,2.66
2023-02-11T02:27:13.743Z,2.71
2023-02-11T02:28:13.765Z,2.73
2023-02-11T02:29:13.785Z,2.63
2023-02-11T02:30:13.784Z,2.63
2023-02-11T02:31:13.791Z,2.62
2023-02-11T02:32:13.724Z,2.61
2023-02-11T02:33:22.367Z,2.68
2023-02-11T02:34:14.777Z,2.71
2023-02-11T02:35:13.687Z,2.59
2023-02-11T02:36:13.679Z,2.56
2023-02-11T02:37:13.692Z,2.61
2023-02-11T02:38:13.683Z,2.61
2023-02-11T02:39:13.654Z,2.61
2023-02-11T02:40:13.684Z,2.59
2023-02-11T02:41:13.672Z,2.63
2023-02-11T02:42:13.642Z,2.63
2023-02-11T02:43:13.623Z,2.65
2023-02-11T02:44:13.645Z,2.69
2023-02-11T02:45:13.635Z,2.58
2023-02-11T02:46:13.729Z,2.63
2023-02-11T02:47:13.595Z,2.61
2023-02-11T02:48:13.606Z,2.56
2023-02-11T02:49:13.620Z,2.69
2023-02-11T02:50:13.589Z,2.68
2023-02-11T02:51:13.610Z,2.71
2023-02-11T02:52:13.625Z,2.68
2023-02-11T02:53:13.545Z,2.63
2023-02-11T02:54:13.572Z,2.59
2023-02-11T02:55:13.548Z,2.56
2023-02-11T02:56:13.530Z,2.63
2023-02-11T02:57:13.563Z,2.69
2023-02-11T02:58:13.928Z,2.65
2023-02-11T02:59:13.512Z,2.53
2023-02-11T03:00:13.512Z,2.65
2023-02-11T03:01:13.554Z,2.68
2023-02-11T03:02:13.518Z,2.55
2023-02-11T03:03:13.516Z,2.71
2023-02-11T03:04:13.528Z,2.65
2023-02-11T03:05:13.493Z,2.48
2023-02-11T03:06:13.516Z,2.61
2023-02-11T03:07:13.499Z,2.61
2023-02-11T03:08:13.464Z,2.63
2023-02-11T03:09:13.450Z,2.65
2023-02-11T03:10:13.490Z,2.56
2023-02-11T03:11:13.447Z,2.68
2023-02-11T03:12:13.463Z,2.63
2023-02-11T03:13:13.409Z,2.71
2023-02-11T03:14:13.466Z,2.65
2023-02-11T03:15:13.433Z,2.65
2023-02-11T03:16:13.507Z,2.68
2023-02-11T03:17:13.387Z,2.71
2023-02-11T03:18:13.410Z,2.69
2023-02-11T03:19:13.373Z,2.61
2023-02-11T03:20:13.392Z,2.74
2023-02-11T03:21:13.371Z,2.63
2023-02-11T03:22:13.436Z,2.71
2023-02-11T03:23:13.370Z,2.61
2023-02-11T03:24:13.395Z,2.68
2023-02-11T03:25:13.355Z,2.73
2023-02-11T03:26:13.351Z,2.68
2023-02-11T03:27:13.325Z,2.68
2023-02-11T03:28:13.416Z,2.69
2023-02-11T03:29:13.346Z,2.66
2023-02-11T03:30:13.304Z,2.68
2023-02-11T03:31:13.351Z,2.76
2023-02-11T03:32:13.358Z,2.66
2023-02-11T03:33:13.271Z,2.76
2023-02-11T03:34:13.333Z,2.68
2023-02-11T03:35:13.273Z,2.65
2023-02-11T03:36:13.252Z,2.56
2023-02-11T03:37:13.288Z,2.63
2023-02-11T03:38:13.268Z,2.58
2023-02-11T03:39:13.235Z,2.58
2023-02-11T03:40:13.291Z,2.63
2023-02-11T03:41:13.249Z,2.55
2023-02-11T03:42:13.254Z,2.59
2023-02-11T03:43:13.209Z,2.63
2023-02-11T03:44:13.207Z,2.55
2023-02-11T03:45:36.768Z,2.68
2023-02-11T03:46:13.362Z,2.53
2023-02-11T03:47:13.189Z,2.59
2023-02-11T03:48:13.190Z,2.58
2023-02-11T03:49:13.212Z,2.51
2023-02-11T03:50:13.175Z,2.51
2023-02-11T03:51:13.140Z,2.47
2023-02-11T03:52:43.820Z,2.53
2023-02-11T03:53:13.148Z,2.51
2023-02-11T03:54:13.161Z,2.47
2023-02-11T03:55:13.116Z,2.50
2023-02-11T03:56:13.130Z,2.44
2023-02-11T03:57:13.131Z,2.29
2023-02-11T03:58:13.155Z,2.40
2023-02-11T03:59:13.110Z,2.41
2023-02-11T04:00:19.912Z,2.41
2023-02-11T04:01:13.161Z,2.36
2023-02-11T04:02:13.057Z,2.44
2023-02-11T04:03:13.100Z,2.45
2023-02-11T04:04:13.358Z,2.44
2023-02-11T04:06:00.415Z,2.41
2023-02-11T04:06:14.065Z,2.43
2023-02-11T04:07:13.031Z,2.40
2023-02-11T04:08:13.027Z,2.48
2023-02-11T04:09:13.034Z,2.47
2023-02-11T04:10:13.045Z,2.44
2023-02-11T04:11:12.993Z,2.45
2023-02-11T04:12:13.006Z,2.47
2023-02-11T04:13:12.989Z,2.43
2023-02-11T04:14:12.974Z,2.48
2023-02-11T04:15:12.975Z,2.40
2023-02-11T04:16:13.031Z,2.37
2023-02-11T04:17:12.953Z,2.47
2023-02-11T04:18:12.941Z,2.44
2023-02-11T04:19:12.959Z,2.36
2023-02-11T04:20:12.951Z,2.40
2023-02-11T04:21:12.927Z,2.45
2023-02-11T04:22:12.970Z,2.43
2023-02-11T04:23:12.940Z,2.44
2023-02-11T04:24:12.910Z,2.44
2023-02-11T04:25:12.909Z,2.44
2023-02-11T04:26:12.883Z,2.44
2023-02-11T04:27:12.915Z,2.44
2023-02-11T04:28:12.938Z,2.45
2023-02-11T04:29:12.920Z,2.47
2023-02-11T04:30:12.861Z,2.44
2023-02-11T04:31:12.994Z,2.43
2023-02-11T04:32:12.966Z,2.38
2023-02-11T04:33:12.845Z,2.47
2023-02-11T04:34:12.869Z,2.41
2023-02-11T04:35:12.814Z,2.44
2023-02-11T04:36:12.832Z,2.36
2023-02-11T04:37:12.813Z,2.44
2023-02-11T04:38:12.792Z,2.44
2023-02-11T04:39:12.815Z,2.48
2023-02-11T04:40:12.819Z,2.44
2023-02-11T04:41:12.804Z,2.44
2023-02-11T04:42:12.781Z,2.44
2023-02-11T04:43:12.760Z,2.41
2023-02-11T04:44:12.793Z,2.56
2023-02-11T04:45:12.762Z,2.47
2023-02-11T04:46:12.932Z,2.51
2023-02-11T04:47:12.761Z,2.47
2023-02-11T04:48:12.736Z,2.43
2023-02-11T04:49:12.722Z,2.45
2023-02-11T04:50:12.730Z,2.41
2023-02-11T04:51:12.712Z,2.44
2023-02-11T04:52:12.746Z,2.43
2023-02-11T04:53:12.699Z,2.44
2023-02-11T04:54:12.713Z,2.44
2023-02-11T04:55:12.690Z,2.41
2023-02-11T04:56:12.715Z,2.41
2023-02-11T04:57:12.698Z,2.47
2023-02-11T04:58:12.702Z,2.33
2023-02-11T04:59:12.652Z,2.40
2023-02-11T05:00:12.686Z,2.36
2023-02-11T05:01:12.692Z,2.38
2023-02-11T05:02:12.673Z,2.37
2023-02-11T05:03:12.643Z,2.32
2023-02-11T05:04:12.709Z,2.47
2023-02-11T05:05:12.650Z,2.41
2023-02-11T05:06:12.625Z,2.48
2023-02-11T05:07:12.600Z,2.33
2023-02-11T05:08:12.590Z,2.44
2023-02-11T05:09:12.593Z,2.41
2023-02-11T05:10:12.926Z,2.45
2023-02-11T05:11:12.569Z,2.38
2023-02-11T05:12:12.576Z,2.45
2023-02-11T05:13:12.564Z,2.43
2023-02-11T05:14:12.550Z,2.50
2023-02-11T05:15:12.543Z,2.53
2023-02-11T05:16:12.672Z,2.41
2023-02-11T05:17:12.536Z,2.58
2023-02-11T05:18:12.534Z,2.48
2023-02-11T05:19:12.537Z,2.41
2023-02-11T05:20:12.541Z,2.50
2023-02-11T05:21:12.524Z,2.48
2023-02-11T05:22:12.540Z,2.48
2023-02-11T05:23:12.494Z,2.51
2023-02-11T05:24:12.465Z,2.55
2023-02-11T05:25:12.463Z,2.53
2023-02-11T05:26:12.469Z,2.47
2023-02-11T05:27:12.473Z,2.47
2023-02-11T05:28:12.552Z,2.51
2023-02-11T05:29:12.438Z,2.47
2023-02-11T05:30:12.440Z,2.51
2023-02-11T05:31:12.497Z,2.45
2023-02-11T05:32:12.447Z,2.47
2023-02-11T05:33:12.410Z,2.56
2023-02-11T05:34:12.480Z,2.53
2023-02-11T05:35:12.408Z,2.59
2023-02-11T05:36:12.447Z,2.59
2023-02-11T05:37:12.410Z,2.56
2023-02-11T05:38:12.387Z,2.53
2023-02-11T05:39:12.385Z,2.51
2023-02-11T05:40:12.447Z,2.61
2023-02-11T05:41:12.364Z,2.66
2023-02-11T05:42:12.339Z,2.55
2023-02-11T05:43:12.371Z,2.61
2023-02-11T05:44:12.335Z,2.66
2023-02-11T05:45:12.327Z,2.59
2023-02-11T05:46:12.385Z,2.53
2023-02-11T05:47:12.326Z,2.59
2023-02-11T05:48:12.324Z,2.63
2023-02-11T05:49:12.288Z,2.68
2023-02-11T05:50:12.347Z,2.63
2023-02-11T05:51:12.335Z,2.59
2023-02-11T05:52:12.345Z,2.61
2023-02-11T05:53:12.280Z,2.58
2023-02-11T05:54:12.281Z,2.62
2023-02-11T05:55:12.261Z,2.62
2023-02-11T05:56:12.251Z,2.53
2023-02-11T05:57:12.235Z,2.69
2023-02-11T05:58:12.307Z,2.55
2023-02-11T05:59:12.225Z,2.55
2023-02-11T06:00:12.237Z,2.53
2023-02-11T06:01:12.249Z,2.58
2023-02-11T06:02:12.253Z,2.45
2023-02-11T06:03:12.197Z,2.63
2023-02-11T06:04:12.242Z,2.63
2023-02-11T06:05:12.199Z,2.69
2023-02-11T06:06:12.211Z,2.66
2023-02-11T06:07:12.203Z,2.65
2023-02-11T06:08:12.179Z,2.63
2023-02-11T06:09:12.178Z,2.50
2023-02-11T06:10:12.559Z,2.68
2023-02-11T06:11:12.161Z,2.63
2023-02-11T06:12:12.176Z,2.68
2023-02-11T06:13:12.128Z,2.59
2023-02-11T06:14:12.174Z,2.59
2023-02-11T06:15:12.119Z,2.63
2023-02-11T06:16:12.253Z,2.59
2023-02-11T06:17:14.611Z,2.61
2023-02-11T06:18:12.123Z,2.68
2023-02-11T06:19:12.105Z,2.61
2023-02-11T06:20:12.107Z,2.63
2023-02-11T06:21:12.094Z,2.62
2023-02-11T06:22:12.092Z,2.69
2023-02-11T06:23:12.088Z,2.79
2023-02-11T06:24:12.079Z,2.81
2023-02-11T06:25:12.075Z,2.81
2023-02-11T06:26:12.044Z,2.86
2023-02-11T06:27:12.053Z,2.94
2023-02-11T06:28:12.130Z,2.84
2023-02-11T06:29:12.035Z,2.95
2023-02-11T06:30:12.078Z,2.90
2023-02-11T06:31:12.220Z,2.94
2023-02-11T06:32:33.590Z,2.94
2023-02-11T06:33:13.063Z,2.95
2023-02-11T06:34:12.018Z,2.95
2023-02-11T06:35:12.567Z,2.86
2023-02-11T06:36:11.976Z,2.94
2023-02-11T06:37:11.995Z,2.92
2023-02-11T06:38:11.964Z,3.01
2023-02-11T06:39:11.983Z,2.97
2023-02-11T06:40:11.964Z,2.97
2023-02-11T06:41:11.932Z,2.97
2023-02-11T06:42:11.945Z,3.01
2023-02-11T06:43:11.945Z,2.95
2023-02-11T06:44:11.927Z,2.94
2023-02-11T06:45:11.976Z,2.99
2023-02-11T06:46:11.922Z,2.97
2023-02-11T06:47:11.907Z,2.94
2023-02-11T06:48:11.896Z,2.98
2023-02-11T06:49:11.906Z,2.94
2023-02-11T06:50:11.889Z,2.89
2023-02-11T06:51:11.926Z,2.90
2023-02-11T06:52:11.868Z,2.87
2023-02-11T06:53:11.844Z,2.95
2023-02-11T06:54:11.858Z,2.86
2023-02-11T06:55:11.856Z,2.92
2023-02-11T06:56:11.848Z,2.92
2023-02-11T06:57:11.859Z,2.95
2023-02-11T06:58:11.799Z,2.87
2023-02-11T06:59:11.825Z,2.97
2023-02-11T07:00:11.824Z,3.04
2023-02-11T07:01:11.820Z,2.89
2023-02-11T07:02:11.842Z,2.95
2023-02-11T07:03:11.930Z,2.92
2023-02-11T07:04:11.767Z,2.97
2023-02-11T07:05:11.764Z,2.95
2023-02-11T07:06:11.750Z,3.05
2023-02-11T07:07:11.746Z,3.04
2023-02-11T07:08:11.730Z,3.17
2023-02-11T07:09:11.787Z,3.15
2023-02-11T07:10:11.778Z,3.05
2023-02-11T07:11:11.726Z,3.10
2023-02-11T07:12:11.706Z,3.07
2023-02-11T07:13:11.775Z,3.22
2023-02-11T07:14:11.719Z,3.23
2023-02-11T07:15:11.958Z,3.16
2023-02-11T07:16:11.704Z,3.10
2023-02-11T07:17:11.667Z,3.16
2023-02-11T07:18:14.538Z,3.17
2023-02-11T07:19:11.655Z,3.26
2023-02-11T07:20:11.638Z,3.15
2023-02-11T07:21:11.688Z,3.16
2023-02-11T07:22:11.639Z,3.16
2023-02-11T07:23:11.625Z,3.13
2023-02-11T07:24:11.736Z,3.17
2023-02-11T07:25:11.616Z,3.19
2023-02-11T07:26:11.602Z,3.05
2023-02-11T07:27:11.665Z,3.10
2023-02-11T07:28:11.680Z,3.22
2023-02-11T07:29:11.602Z,3.19
2023-02-11T07:30:11.573Z,3.10
2023-02-11T07:31:11.644Z,3.20
2023-02-11T07:32:11.605Z,3.19
2023-02-11T07:33:11.592Z,3.19
2023-02-11T07:34:11.557Z,3.13
2023-02-11T07:35:11.534Z,3.22
2023-02-11T07:36:11.530Z,3.13
2023-02-11T07:37:11.548Z,3.20
2023-02-11T07:38:11.513Z,3.16
2023-02-11T07:39:11.565Z,3.33
2023-02-11T07:40:11.525Z,3.20
2023-02-11T07:41:13.444Z,3.33
2023-02-11T07:42:11.486Z,3.23
2023-02-11T07:43:11.502Z,3.15
2023-02-11T07:44:11.512Z,3.26
2023-02-11T07:45:11.493Z,3.25
2023-02-11T07:46:11.513Z,3.46
2023-02-11T07:47:11.475Z,3.34
2023-02-11T07:48:11.448Z,3.39
2023-02-11T07:49:11.429Z,3.42
2023-02-11T07:50:11.486Z,3.41
2023-02-11T07:51:11.472Z,3.30
2023-02-11T07:52:12.526Z,3.46
2023-02-11T07:53:11.446Z,3.39
2023-02-11T07:54:11.414Z,3.33
2023-02-11T07:55:11.417Z,3.41
2023-02-11T07:56:11.378Z,3.46
2023-02-11T07:57:11.439Z,3.54
2023-02-11T07:58:11.392Z,3.39
2023-02-11T07:59:11.359Z,3.31
2023-02-11T08:00:11.361Z,3.44
2023-02-11T08:01:11.375Z,3.54
2023-02-11T08:02:11.434Z,3.52
2023-02-11T08:03:11.375Z,3.46
2023-02-11T08:04:11.323Z,3.53
2023-02-11T08:05:11.331Z,3.59
2023-02-11T08:06:11.317Z,3.60
2023-02-11T08:07:11.321Z,3.64
2023-02-11T08:08:11.310Z,3.64
2023-02-11T08:09:11.337Z,3.56
2023-02-11T08:10:11.281Z,3.60
2023-02-11T08:11:11.296Z,3.56
2023-02-11T08:12:11.293Z,3.62
2023-02-11T08:13:11.259Z,3.62
2023-02-11T08:14:11.271Z,3.57
2023-02-11T08:15:11.297Z,3.54
2023-02-11T08:16:11.270Z,3.53
2023-02-11T08:17:11.222Z,3.75
2023-02-11T08:18:11.249Z,3.74
2023-02-11T08:19:11.236Z,3.71
2023-02-11T08:20:11.205Z,3.60
2023-02-11T08:21:27.934Z,3.77
2023-02-11T08:22:12.219Z,3.77
2023-02-11T08:23:11.186Z,3.70
2023-02-11T08:24:11.180Z,3.72
2023-02-11T08:25:23.410Z,3.74
2023-02-11T08:26:11.170Z,3.77
2023-02-11T08:27:11.214Z,3.81
2023-02-11T08:28:11.266Z,3.84
2023-02-11T08:29:11.139Z,3.80
2023-02-11T08:30:11.133Z,3.89
2023-02-11T08:31:11.285Z,3.98
2023-02-11T08:32:11.183Z,4.02
2023-02-11T08:33:11.179Z,4.11
2023-02-11T08:34:11.114Z,4.07
2023-02-11T08:35:11.121Z,4.07
2023-02-11T08:36:11.127Z,4.13
2023-02-11T08:37:11.100Z,4.18
2023-02-11T08:38:11.082Z,4.28
2023-02-11T08:39:20.260Z,4.25
2023-02-11T08:40:12.085Z,4.29
2023-02-11T08:41:11.062Z,4.14
2023-02-11T08:42:11.056Z,4.21
2023-02-11T08:43:11.069Z,4.24
2023-02-11T08:44:11.027Z,4.26
2023-02-11T08:45:11.117Z,4.18
2023-02-11T08:46:11.090Z,4.18
2023-02-11T08:47:11.002Z,4.10
2023-02-11T08:48:11.044Z,4.16
2023-02-11T08:49:11.011Z,4.07
2023-02-11T08:50:11.025Z,4.08
2023-02-11T08:51:11.023Z,4.02
2023-02-11T08:52:10.976Z,4.04
2023-02-11T08:53:10.974Z,4.04
2023-02-11T08:54:10.971Z,4.06
2023-02-11T08:55:10.970Z,4.17
2023-02-11T08:56:13.349Z,4.11
2023-02-11T08:57:10.982Z,4.14
2023-02-11T08:58:10.961Z,4.16
2023-02-11T08:59:10.935Z,4.18
2023-02-11T09:00:10.926Z,4.44
2023-02-11T09:01:10.959Z,4.42
2023-02-11T09:02:10.922Z,4.35
2023-02-11T09:03:10.934Z,4.20
2023-02-11T09:04:10.877Z,4.13
2023-02-11T09:05:10.905Z,4.00
2023-02-11T09:06:10.920Z,4.06
2023-02-11T09:07:10.867Z,4.06
2023-02-11T09:08:10.849Z,4.07
2023-02-11T09:09:10.906Z,4.26
2023-02-11T09:10:10.868Z,4.14
2023-02-11T09:11:10.822Z,4.07
2023-02-11T09:12:10.820Z,4.14
2023-02-11T09:18:12.053Z,4.24
2023-02-11T09:19:10.790Z,4.29
2023-02-11T09:20:10.986Z,4.36
2023-02-11T09:21:10.791Z,4.39
2023-02-11T09:22:10.768Z,4.34
2023-02-11T09:23:10.766Z,4.24
2023-02-11T09:24:10.823Z,4.36
2023-02-11T09:25:10.775Z,4.44
2023-02-11T09:26:10.751Z,4.39
2023-02-11T09:27:10.754Z,4.42
2023-02-11T09:28:10.853Z,4.34
2023-02-11T09:29:10.757Z,4.44
2023-02-11T09:30:10.732Z,4.36
2023-02-11T09:31:10.894Z,4.29
2023-02-11T09:32:10.873Z,4.47
2023-02-11T09:33:10.690Z,4.21
2023-02-11T09:34:10.678Z,4.34
2023-02-11T09:35:10.656Z,4.36
2023-02-11T09:36:10.722Z,4.42
2023-02-11T09:37:10.653Z,4.28
2023-02-11T09:38:10.663Z,4.06
2023-02-11T09:39:10.640Z,4.24
2023-02-11T09:40:10.663Z,4.17
2023-02-11T09:41:10.694Z,4.16
2023-02-11T09:42:10.716Z,4.29
2023-02-11T09:43:10.611Z,4.31
2023-02-11T09:44:10.627Z,4.18
2023-02-11T09:45:10.599Z,4.24
2023-02-11T09:46:10.664Z,4.29
2023-02-11T09:47:10.635Z,4.25
2023-02-11T09:48:10.622Z,4.29
2023-02-11T09:49:10.566Z,4.29
2023-02-11T09:50:10.558Z,4.31
2023-02-11T09:51:10.574Z,4.31
2023-02-11T09:52:10.556Z,4.18
2023-02-11T09:53:10.532Z,4.20
2023-02-11T09:54:10.588Z,4.20
2023-02-11T09:55:10.544Z,4.25
2023-02-11T09:56:10.505Z,4.24
2023-02-11T09:57:19.641Z,4.20
2023-02-11T09:58:11.502Z,4.24
2023-02-11T09:59:10.504Z,4.29
2023-02-11T10:00:10.546Z,4.24
2023-02-11T10:01:10.509Z,4.21
2023-02-11T10:02:10.472Z,4.28
2023-02-11T10:03:10.473Z,4.21
2023-02-11T10:04:10.520Z,4.36
2023-02-11T10:05:10.443Z,4.34
2023-02-11T10:06:10.498Z,4.25
2023-02-11T10:07:10.431Z,4.18
2023-02-11T10:08:10.461Z,4.31
2023-02-11T10:09:10.424Z,4.34
2023-02-11T10:10:10.437Z,4.35
2023-02-11T10:11:17.595Z,4.44
2023-02-11T10:12:11.453Z,4.51
2023-02-11T10:13:10.396Z,4.43
2023-02-11T10:14:10.397Z,4.47
2023-02-11T10:15:10.408Z,4.62
2023-02-11T10:16:10.470Z,4.56
2023-02-11T10:17:10.388Z,4.59
2023-02-11T10:18:10.395Z,4.56
2023-02-11T10:19:10.365Z,4.62
2023-02-11T10:20:10.353Z,4.62
2023-02-11T10:21:10.345Z,4.61
2023-02-11T10:22:10.354Z,4.68
2023-02-11T10:23:10.345Z,4.74
2023-02-11T10:24:10.575Z,4.79
2023-02-11T10:25:10.343Z,4.79
2023-02-11T10:26:10.325Z,4.68
2023-02-11T10:27:10.323Z,4.61
2023-02-11T10:28:10.341Z,4.62
2023-02-11T10:29:10.307Z,4.67
2023-02-11T10:30:10.336Z,4.68
2023-02-11T10:31:10.395Z,4.64
2023-02-11T10:32:10.292Z,4.64
2023-02-11T10:33:10.275Z,4.69
2023-02-11T10:34:10.253Z,4.71
2023-02-11T10:35:10.240Z,4.90
2023-02-11T10:36:10.285Z,4.77
2023-02-11T10:37:10.241Z,4.86
2023-02-11T10:38:10.257Z,4.79
2023-02-11T10:39:10.210Z,4.74
2023-02-11T10:40:10.204Z,4.77
2023-02-11T10:41:10.217Z,4.84
2023-02-11T10:42:10.224Z,4.84
2023-02-11T10:43:10.190Z,4.93
2023-02-11T10:44:10.202Z,4.93
2023-02-11T10:45:10.165Z,4.99
2023-02-11T10:46:10.248Z,5.04
2023-02-11T10:47:10.166Z,5.06
2023-02-11T10:48:10.186Z,4.87
2023-02-11T10:49:10.122Z,4.79
2023-02-11T10:50:10.144Z,4.88
2023-02-11T10:51:11.021Z,4.83
2023-02-11T10:52:10.127Z,5.08
2023-02-11T10:53:10.108Z,5.05
2023-02-11T10:54:12.611Z,5.05
2023-02-11T10:55:10.101Z,4.97
2023-02-11T10:56:10.130Z,5.14
2023-02-11T10:57:10.072Z,5.19
2023-02-11T10:58:10.088Z,5.11
2023-02-11T10:59:10.104Z,5.19
2023-02-11T11:00:10.088Z,5.06
2023-02-11T11:01:23.450Z,4.99
2023-02-11T11:02:11.118Z,5.08
2023-02-11T11:03:10.037Z,5.14
2023-02-11T11:04:10.041Z,4.96
2023-02-11T11:05:10.058Z,4.97
2023-02-11T11:06:10.082Z,5.08
2023-02-11T11:07:10.001Z,4.84
2023-02-11T11:08:10.005Z,4.83
2023-02-11T11:09:09.997Z,4.84
2023-02-11T11:10:10.003Z,4.86
2023-02-11T11:11:10.034Z,4.84
2023-02-11T11:12:10.009Z,4.88
2023-02-11T11:13:09.972Z,4.87
2023-02-11T11:14:09.957Z,4.79
2023-02-11T11:15:09.966Z,4.83
2023-02-11T11:16:10.038Z,4.80
2023-02-11T11:17:09.971Z,4.79
2023-02-11T11:18:20.840Z,4.88
2023-02-11T11:19:10.937Z,4.90
2023-02-11T11:20:09.938Z,4.96
2023-02-11T11:21:09.902Z,4.87
2023-02-11T11:22:09.915Z,4.80
2023-02-11T11:23:09.998Z,4.88
2023-02-11T11:24:09.939Z,4.99
2023-02-11T11:25:09.884Z,4.99
2023-02-11T11:26:09.882Z,5.06
2023-02-11T11:27:09.855Z,5.01
2023-02-11T11:28:09.868Z,5.05
2023-02-11T11:29:09.865Z,4.87
2023-02-11T11:30:10.070Z,5.05
2023-02-11T11:31:09.968Z,5.08
2023-02-11T11:32:09.895Z,5.09
2023-02-11T11:33:09.824Z,4.97
2023-02-11T11:34:09.852Z,4.87
2023-02-11T11:35:09.810Z,4.93
2023-02-11T11:36:09.873Z,4.94
2023-02-11T11:37:09.809Z,5.06
2023-02-11T11:38:09.806Z,5.14
2023-02-11T11:39:09.796Z,5.04
2023-02-11T11:40:09.792Z,4.84
2023-02-11T11:41:09.779Z,4.97
2023-02-11T11:42:09.835Z,5.12
2023-02-11T11:43:09.742Z,5.11
2023-02-11T11:44:09.739Z,5.05
2023-02-11T11:45:09.748Z,4.99
2023-02-11T11:46:09.772Z,4.86
2023-02-11T11:47:09.715Z,5.04
2023-02-11T11:48:09.735Z,4.97
2023-02-11T11:49:09.724Z,5.04
2023-02-11T11:50:09.735Z,4.96
2023-02-11T11:51:09.725Z,4.94
2023-02-11T11:52:09.705Z,5.08
2023-02-11T11:53:09.691Z,5.02
2023-02-11T11:54:09.722Z,5.19
2023-02-11T11:55:09.657Z,5.14
2023-02-11T11:56:09.668Z,5.23
2023-02-11T11:57:09.643Z,5.20
2023-02-11T11:58:09.691Z,5.26
2023-02-11T11:59:09.660Z,5.42
2023-02-11T12:00:09.751Z,5.40
2023-02-11T12:01:09.645Z,5.29
2023-02-11T12:02:09.734Z,5.35
2023-02-11T12:03:09.738Z,5.37
2023-02-11T12:04:09.611Z,5.38
2023-02-11T12:05:09.590Z,5.45
2023-02-11T12:06:09.642Z,5.56
2023-02-11T12:07:09.629Z,5.63
2023-02-11T12:08:09.585Z,5.69
2023-02-11T12:09:09.616Z,5.75
2023-02-11T12:10:09.579Z,5.81
2023-02-11T12:11:09.602Z,5.69
2023-02-11T12:12:09.588Z,5.67
2023-02-11T12:13:09.533Z,5.90
2023-02-11T12:14:09.569Z,5.67
2023-02-11T12:15:09.525Z,5.67
2023-02-11T12:16:09.538Z,5.78
2023-02-11T12:17:09.504Z,5.87
2023-02-11T12:18:09.535Z,5.88
2023-02-11T12:19:09.520Z,5.90
2023-02-11T12:20:09.503Z,6.10
2023-02-11T12:21:09.475Z,6.03
2023-02-11T12:22:09.457Z,6.02
2023-02-11T12:23:09.515Z,5.99
2023-02-11T12:24:09.501Z,5.99
2023-02-11T12:25:09.450Z,5.96
2023-02-11T12:26:09.468Z,5.99
2023-02-11T12:27:09.415Z,5.95
2023-02-11T12:28:09.490Z,5.93
2023-02-11T12:29:09.420Z,5.95
2023-02-11T12:30:09.656Z,5.88
2023-02-11T12:31:11.411Z,5.78
2023-02-11T12:32:09.551Z,5.80
2023-02-11T12:33:09.396Z,5.67
2023-02-11T12:34:09.371Z,5.58
2023-02-11T12:35:09.372Z,5.49
2023-02-11T12:36:09.445Z,5.66
2023-02-11T12:37:09.371Z,5.70
2023-02-11T12:38:09.408Z,5.74
2023-02-11T12:39:09.419Z,5.66
2023-02-11T12:40:09.373Z,5.75
2023-02-11T12:41:09.319Z,5.65
2023-02-11T12:42:09.351Z,5.58
2023-02-11T12:43:09.355Z,5.66
2023-02-11T12:44:09.299Z,5.55
2023-02-11T12:45:09.284Z,5.63
2023-02-11T12:46:18.006Z,5.66
2023-02-11T12:47:09.270Z,5.55
2023-02-11T12:48:09.299Z,5.41
2023-02-11T12:49:09.328Z,5.32
2023-02-11T12:50:09.294Z,5.38
2023-02-11T12:51:09.302Z,5.40
2023-02-11T12:52:09.298Z,5.32
2023-02-11T12:53:09.239Z,5.37
2023-02-11T12:54:09.261Z,5.32
2023-02-11T12:55:09.224Z,5.38
2023-02-11T12:56:09.273Z,5.40
2023-02-11T12:57:09.227Z,5.32
2023-02-11T12:58:09.232Z,5.37
2023-02-11T12:59:09.232Z,5.40
2023-02-11T13:00:09.296Z,5.45
2023-02-11T13:01:09.214Z,5.35
2023-02-11T13:02:09.261Z,5.32
2023-02-11T13:03:09.159Z,5.41
2023-02-11T13:04:09.169Z,5.47
2023-02-11T13:05:09.174Z,5.47
2023-02-11T13:06:09.176Z,5.52
2023-02-11T13:07:09.184Z,5.58
2023-02-11T13:08:09.129Z,5.48
2023-02-11T13:09:09.110Z,5.32
2023-02-11T13:10:09.121Z,5.30
2023-02-11T13:11:09.151Z,5.41
2023-02-11T13:12:09.148Z,5.47
2023-02-11T13:13:09.121Z,5.38
2023-02-11T13:14:09.101Z,5.42
2023-02-11T13:15:09.096Z,5.37
2023-02-11T13:16:09.157Z,5.32
2023-02-11T13:17:09.095Z,5.37
2023-02-11T13:18:09.110Z,5.40
2023-02-11T13:19:09.045Z,5.29
2023-02-11T13:20:09.081Z,5.24
2023-02-11T13:21:09.051Z,5.24
2023-02-11T13:22:09.053Z,5.32
2023-02-11T13:23:09.028Z,5.33